Time;durP1;ratioP1;P1;durP2;ratioP2;P2;SDS_P1;SDS_P2;PMS_P1;PMS_P2;Temp;Humidity;BMP_temperature;BMP_pressure;BME280_temperature;BME280_humidity;BME280_pressure;Samples;Min_cycle;Max_cycle;Signal;HPM_P1;HPM_P2
2022/03/13 00:00:20;;;;;;;9.30;6.37;;;5.90;82.70;;;;;;4916515;29;20268;-61
2022/03/13 00:02:50;;;;;;;8.90;6.00;;;5.90;82.80;;;;;;4893042;29;20236;-61
2022/03/13 00:05:19;;;;;;;9.03;6.43;;;5.90;82.90;;;;;;4935792;29;20600;-62
2022/03/13 00:07:48;;;;;;;10.63;7.00;;;5.90;83.90;;;;;;4930517;29;20387;-61
2022/03/13 00:10:19;;;;;;;8.83;6.03;;;5.80;83.20;;;;;;4916739;29;20320;-61
2022/03/13 00:12:48;;;;;;;9.37;6.87;;;5.80;83.40;;;;;;4916393;29;20240;-61
2022/03/13 00:15:26;;;;;;;7.83;5.93;;;5.80;83.40;;;;;;4916774;29;20233;-61
2022/03/13 00:17:55;;;;;;;7.07;5.40;;;5.70;83.60;;;;;;4922095;29;20231;-61
2022/03/13 00:20:23;;;;;;;7.43;6.20;;;5.70;84.00;;;;;;4913997;29;20236;-61
2022/03/13 00:22:54;;;;;;;8.57;6.07;;;5.80;88.80;;;;;;4928000;29;20299;-61
2022/03/13 00:25:22;;;;;;;8.53;6.23;;;5.70;84.70;;;;;;4935485;29;20240;-61
2022/03/13 00:27:51;;;;;;;7.90;5.53;;;5.70;85.40;;;;;;4930000;29;20241;-61
2022/03/13 00:30:19;;;;;;;7.60;6.13;;;5.70;89.70;;;;;;4916371;29;20783;-61
2022/03/13 00:32:47;;;;;;;7.83;6.00;;;5.70;88.70;;;;;;4916020;29;20337;-61
2022/03/13 00:35:15;;;;;;;8.60;6.43;;;5.70;86.70;;;;;;4916328;29;20243;-61
2022/03/13 00:37:44;;;;;;;6.97;4.80;;;5.60;89.60;;;;;;4919688;29;20251;-61
2022/03/13 00:40:15;;;;;;;9.80;6.03;;;5.60;92.70;;;;;;4934953;29;20283;-61
2022/03/13 00:42:44;;;;;;;10.30;6.57;;;5.60;90.40;;;;;;4930622;29;20251;-61
2022/03/13 00:45:12;;;;;;;12.40;7.33;;;5.50;86.50;;;;;;4915959;29;20237;-61
2022/03/13 00:47:40;;;;;;;14.60;8.03;;;5.50;86.10;;;;;;4915877;29;20291;-61
2022/03/13 00:50:09;;;;;;;12.53;7.80;;;5.40;85.70;;;;;;4915436;29;20232;-61
2022/03/13 00:52:37;;;;;;;13.20;8.10;;;5.40;85.70;;;;;;4900657;29;20288;-61
2022/03/13 00:55:07;;;;;;;11.37;7.40;;;5.40;85.80;;;;;;4915897;29;20259;-61
2022/03/13 00:57:37;;;;;;;8.77;6.73;;;5.30;85.70;;;;;;4918474;29;20319;-61
2022/03/13 01:00:06;;;;;;;10.33;7.03;;;5.30;85.60;;;;;;4934781;29;20232;-62
2022/03/13 01:02:34;;;;;;;10.90;7.03;;;5.30;85.80;;;;;;4931444;29;20264;-61
2022/03/13 01:05:03;;;;;;;7.97;5.60;;;5.20;85.90;;;;;;4915710;29;20240;-62
2022/03/13 01:07:31;;;;;;;10.00;6.43;;;5.30;94.20;;;;;;4915869;29;21236;-61
2022/03/13 01:09:59;;;;;;;8.20;6.10;;;5.60;94.20;;;;;;4915563;29;20243;-61
2022/03/13 01:12:27;;;;;;;9.23;5.93;;;5.50;93.80;;;;;;4915442;29;20328;-61
2022/03/13 01:14:57;;;;;;;10.33;6.67;;;5.50;93.60;;;;;;4915454;29;20554;-61
2022/03/13 01:17:26;;;;;;;6.77;5.57;;;5.40;92.40;;;;;;4915775;29;20723;-62
2022/03/13 01:19:54;;;;;;;8.33;6.43;;;5.50;95.80;;;;;;4915105;29;20233;-61
2022/03/13 01:22:22;;;;;;;8.60;5.10;;;5.40;90.70;;;;;;4916534;29;20263;-61
2022/03/13 01:24:51;;;;;;;7.83;6.03;;;5.60;97.90;;;;;;4934269;29;20247;-61
2022/03/13 01:27:19;;;;;;;10.27;6.47;;;5.40;93.50;;;;;;4932990;29;20321;-61
2022/03/13 01:29:48;;;;;;;10.30;6.00;;;5.40;90.40;;;;;;4915124;29;20236;-61
2022/03/13 01:32:21;;;;;;;11.10;6.60;;;5.30;91.60;;;;;;4915174;29;20256;-61
2022/03/13 01:34:51;;;;;;;8.70;5.83;;;5.20;91.10;;;;;;4933884;29;20267;-61
2022/03/13 01:37:34;;;;;;;11.00;7.87;;;5.20;92.40;;;;;;4933921;29;20752;-61
2022/03/13 01:40:15;;;;;;;9.13;7.00;;;5.10;90.30;;;;;;4934026;29;20243;-61
2022/03/13 01:42:44;;;;;;;10.17;6.63;;;5.00;90.30;;;;;;4933711;29;20359;-61
2022/03/13 01:45:15;;;;;;;9.53;6.57;;;5.00;91.00;;;;;;4933844;29;20327;-61
2022/03/13 01:47:45;;;;;;;9.83;6.40;;;4.90;89.70;;;;;;4933817;29;20282;-61
2022/03/13 01:50:15;;;;;;;9.03;6.37;;;4.80;89.00;;;;;;4915563;29;20840;-61
2022/03/13 01:52:47;;;;;;;11.40;6.50;;;4.80;89.10;;;;;;4917000;29;20267;-61
2022/03/13 01:55:17;;;;;;;9.27;6.70;;;4.70;89.00;;;;;;4933854;29;20642;-62
2022/03/13 01:57:47;;;;;;;9.57;7.03;;;4.70;88.80;;;;;;4933569;29;20238;-61
2022/03/13 02:00:19;;;;;;;9.07;6.40;;;4.60;89.20;;;;;;4916959;29;20649;-61
2022/03/13 02:02:49;;;;;;;10.13;6.50;;;4.50;89.00;;;;;;4933332;29;20262;-61
2022/03/13 02:05:29;;;;;;;9.93;6.77;;;4.50;89.10;;;;;;4933709;29;20267;-62
2022/03/13 02:07:57;;;;;;;7.83;6.37;;;4.50;90.00;;;;;;4933415;29;20764;-62
2022/03/13 02:10:26;;;;;;;7.90;6.20;;;4.40;89.00;;;;;;4934005;29;20725;-62
2022/03/13 02:12:55;;;;;;;8.97;6.20;;;4.40;89.50;;;;;;4927103;29;20323;-62
2022/03/13 02:15:32;;;;;;;9.57;7.60;;;4.40;89.10;;;;;;4914889;29;20240;-61
2022/03/13 02:18:07;;;;;;;9.47;6.57;;;4.40;89.00;;;;;;4914151;29;20270;-62
2022/03/13 02:20:39;;;;;;;8.00;5.90;;;4.30;88.80;;;;;;4914156;29;20319;-61
2022/03/13 02:23:15;;;;;;;8.73;6.20;;;4.30;89.00;;;;;;4914247;29;20237;-62
2022/03/13 02:25:44;;;;;;;8.27;6.47;;;4.30;89.20;;;;;;4914507;29;20291;-61
2022/03/13 02:28:14;;;;;;;10.10;6.40;;;4.30;89.30;;;;;;4914119;29;20743;-62
2022/03/13 02:30:42;;;;;;;7.97;6.10;;;4.20;89.30;;;;;;4914833;29;20260;-62
2022/03/13 02:33:18;;;;;;;8.30;6.53;;;4.20;89.40;;;;;;4914420;29;20256;-61
2022/03/13 02:35:52;;;;;;;8.47;6.53;;;4.10;89.40;;;;;;4914309;29;20724;-62
2022/03/13 02:38:22;;;;;;;10.77;6.37;;;4.20;89.60;;;;;;4914347;29;20771;-62
2022/03/13 02:40:50;;;;;;;10.53;6.17;;;4.20;89.50;;;;;;4914348;29;20240;-62
2022/03/13 02:43:19;;;;;;;8.70;6.40;;;4.20;89.50;;;;;;4914054;29;20260;-62
2022/03/13 02:45:47;;;;;;;9.47;6.07;;;4.10;90.60;;;;;;4914119;29;20252;-62
2022/03/13 02:48:16;;;;;;;10.03;6.07;;;4.10;90.10;;;;;;4913704;29;20236;-62
2022/03/13 02:50:44;;;;;;;11.53;6.87;;;4.00;90.10;;;;;;4914198;29;20704;-62
2022/03/13 02:53:16;;;;;;;9.23;6.57;;;4.00;90.30;;;;;;4913946;29;20235;-62
2022/03/13 02:55:45;;;;;;;9.73;6.00;;;4.00;90.50;;;;;;4914466;29;21010;-62
2022/03/13 02:58:14;;;;;;;8.77;6.00;;;4.20;94.60;;;;;;4914364;29;20266;-62
2022/03/13 03:00:44;;;;;;;9.73;6.33;;;4.30;93.90;;;;;;4914695;29;20559;-62
2022/03/13 03:03:17;;;;;;;7.17;6.13;;;4.20;94.50;;;;;;4922454;29;20482;-61
2022/03/13 03:05:46;;;;;;;9.30;5.23;;;4.10;93.30;;;;;;4936844;29;20716;-62
2022/03/13 03:08:14;;;;;;;9.47;6.13;;;4.10;95.00;;;;;;4936319;29;20246;-62
2022/03/13 03:10:43;;;;;;;9.23;6.20;;;4.10;91.80;;;;;;4936592;29;20237;-61
2022/03/13 03:13:14;;;;;;;10.63;6.63;;;4.00;91.30;;;;;;4928008;29;20747;-62
2022/03/13 03:15:43;;;;;;;10.20;6.83;;;3.90;90.80;;;;;;4917607;29;20271;-62
2022/03/13 03:18:11;;;;;;;10.33;5.27;;;3.90;90.90;;;;;;4917257;29;20485;-62
2022/03/13 03:20:40;;;;;;;9.00;6.17;;;3.90;92.20;;;;;;4917385;29;20473;-62
2022/03/13 03:23:09;;;;;;;8.57;6.57;;;3.90;93.30;;;;;;4932179;29;20236;-62
2022/03/13 03:25:37;;;;;;;9.77;6.80;;;4.10;96.80;;;;;;4938841;29;20444;-62
2022/03/13 03:28:07;;;;;;;8.33;6.27;;;4.10;93.80;;;;;;4935621;29;20991;-62
2022/03/13 03:30:37;;;;;;;9.87;5.90;;;4.00;92.10;;;;;;4936543;29;20499;-62
2022/03/13 03:33:06;;;;;;;8.70;5.67;;;3.90;93.00;;;;;;4929279;29;20494;-62
2022/03/13 03:35:35;;;;;;;12.40;6.93;;;3.90;95.20;;;;;;4917515;29;20236;-62
2022/03/13 03:38:04;;;;;;;9.17;6.40;;;3.90;91.70;;;;;;4924171;29;20228;-62
2022/03/13 03:40:34;;;;;;;10.20;6.60;;;3.80;91.50;;;;;;4936119;29;20632;-62
2022/03/13 03:43:05;;;;;;;8.60;6.57;;;3.70;93.60;;;;;;4935569;29;20482;-62
2022/03/13 03:45:33;;;;;;;9.03;6.13;;;3.70;95.10;;;;;;4936335;29;20475;-61
2022/03/13 03:48:03;;;;;;;9.47;6.53;;;3.90;96.60;;;;;;4933495;29;20991;-61
2022/03/13 03:50:31;;;;;;;7.17;5.13;;;3.90;95.60;;;;;;4916337;29;20468;-62
2022/03/13 03:53:00;;;;;;;8.10;6.10;;;4.00;99.80;;;;;;4917012;29;20236;-62
2022/03/13 03:55:29;;;;;;;8.23;6.13;;;4.10;98.20;;;;;;4917020;29;20286;-62
2022/03/13 03:57:57;;;;;;;8.53;6.40;;;4.10;99.20;;;;;;4922583;29;20491;-62
2022/03/13 04:00:25;;;;;;;9.50;6.07;;;3.90;93.30;;;;;;4935761;29;20511;-61
2022/03/13 04:02:54;;;;;;;7.63;6.13;;;3.80;98.70;;;;;;4935507;29;20235;-61
2022/03/13 04:05:24;;;;;;;9.17;6.40;;;3.60;96.20;;;;;;4935770;29;20533;-61
2022/03/13 04:07:52;;;;;;;9.70;6.80;;;3.50;95.70;;;;;;4930014;29;20483;-62
2022/03/13 04:10:20;;;;;;;9.03;6.23;;;3.60;98.70;;;;;;4916541;29;20480;-62
2022/03/13 04:12:48;;;;;;;7.30;5.27;;;3.80;99.90;;;;;;4916277;29;20579;-62
2022/03/13 04:15:16;;;;;;;11.83;6.13;;;3.80;99.90;;;;;;4916565;29;20832;-62
2022/03/13 04:17:45;;;;;;;10.70;6.30;;;3.90;99.90;;;;;;4920628;29;20908;-62
2022/03/13 04:20:13;;;;;;;6.73;5.20;;;3.90;99.90;;;;;;4915695;29;20560;-62
2022/03/13 04:22:42;;;;;;;8.20;6.13;;;4.00;99.90;;;;;;4916143;29;20503;-62
2022/03/13 04:25:11;;;;;;;8.50;5.90;;;4.00;99.90;;;;;;4916485;29;20998;-62
2022/03/13 04:27:39;;;;;;;11.23;6.50;;;3.90;99.90;;;;;;4916188;29;20287;-62
2022/03/13 04:30:09;;;;;;;10.77;6.77;;;3.80;96.30;;;;;;4916692;29;20504;-62
2022/03/13 04:32:37;;;;;;;7.80;5.87;;;3.70;99.90;;;;;;4916318;29;20475;-62
2022/03/13 04:35:06;;;;;;;8.53;5.63;;;3.70;99.90;;;;;;4916325;29;20477;-62
2022/03/13 04:37:34;;;;;;;8.43;6.37;;;3.70;99.90;;;;;;4916461;29;20239;-62
2022/03/13 04:40:05;;;;;;;9.00;6.87;;;3.60;96.80;;;;;;4916378;29;20502;-62
2022/03/13 04:42:33;;;;;;;7.90;5.63;;;3.40;95.00;;;;;;4916034;29;20479;-62
2022/03/13 04:45:02;;;;;;;10.07;7.03;;;3.30;98.20;;;;;;4915918;29;20236;-62
2022/03/13 04:47:32;;;;;;;9.63;6.90;;;3.30;95.80;;;;;;4915667;29;20567;-62
2022/03/13 04:50:00;;;;;;;9.47;6.73;;;3.10;95.10;;;;;;4915545;29;20467;-62
2022/03/13 04:52:29;;;;;;;11.90;6.70;;;3.10;95.20;;;;;;4915516;29;20467;-62
2022/03/13 04:54:57;;;;;;;10.07;7.43;;;3.10;97.80;;;;;;4915878;29;20334;-62
2022/03/13 04:57:26;;;;;;;11.27;6.97;;;3.10;95.30;;;;;;4915697;29;20232;-62
2022/03/13 04:59:54;;;;;;;9.90;6.53;;;3.00;95.10;;;;;;4915708;29;20494;-62
2022/03/13 05:02:22;;;;;;;10.13;7.10;;;3.00;95.00;;;;;;4915432;29;20537;-62
2022/03/13 05:04:51;;;;;;;11.53;7.57;;;2.90;95.00;;;;;;4915460;29;20481;-62
2022/03/13 05:07:20;;;;;;;9.37;6.70;;;2.90;95.00;;;;;;4916261;29;20492;-62
2022/03/13 05:09:48;;;;;;;9.47;7.13;;;2.90;95.10;;;;;;4934355;29;20476;-62
2022/03/13 05:12:21;;;;;;;10.27;7.20;;;2.80;95.10;;;;;;4933243;29;20524;-62
2022/03/13 05:14:51;;;;;;;11.23;7.97;;;2.80;95.10;;;;;;4896506;29;21035;-62
2022/03/13 05:17:19;;;;;;;10.43;7.10;;;2.70;95.10;;;;;;4897467;29;20244;-61
2022/03/13 05:19:47;;;;;;;11.80;7.40;;;2.70;95.10;;;;;;4915065;29;20572;-62
2022/03/13 05:22:15;;;;;;;9.47;7.57;;;2.70;95.20;;;;;;4915093;29;21010;-62
2022/03/13 05:24:43;;;;;;;11.43;7.27;;;2.60;95.20;;;;;;4914767;29;20476;-62
2022/03/13 05:27:11;;;;;;;10.77;7.20;;;2.60;95.20;;;;;;4915049;29;20555;-62
2022/03/13 05:29:39;;;;;;;11.07;7.27;;;2.60;95.60;;;;;;4915100;29;20472;-62
2022/03/13 05:32:10;;;;;;;11.43;7.60;;;2.70;95.20;;;;;;4915069;29;20888;-62
2022/03/13 05:34:38;;;;;;;11.87;7.67;;;2.60;95.10;;;;;;4914944;29;20487;-62
2022/03/13 05:37:08;;;;;;;10.40;7.10;;;2.60;95.20;;;;;;4915534;29;20475;-62
2022/03/13 05:39:36;;;;;;;10.03;6.93;;;2.60;95.10;;;;;;4934071;29;20489;-62
2022/03/13 05:42:05;;;;;;;9.20;6.87;;;2.60;95.10;;;;;;4926068;29;20495;-62
2022/03/13 05:44:36;;;;;;;9.40;7.33;;;2.60;95.00;;;;;;4917640;29;20472;-62
2022/03/13 05:47:05;;;;;;;12.07;7.67;;;2.60;97.10;;;;;;4923176;29;20480;-62
2022/03/13 05:49:35;;;;;;;9.63;5.83;;;2.80;99.90;;;;;;4923164;29;21014;-62
2022/03/13 05:52:04;;;;;;;9.90;7.07;;;3.00;99.90;;;;;;4914500;29;20892;-62
2022/03/13 05:54:32;;;;;;;10.27;7.17;;;2.90;97.80;;;;;;4914406;29;20471;-62
2022/03/13 05:57:03;;;;;;;9.83;7.10;;;2.70;98.00;;;;;;4914203;29;20535;-62
2022/03/13 05:59:33;;;;;;;8.30;6.07;;;2.60;97.80;;;;;;4914301;29;21133;-62
2022/03/13 06:02:02;;;;;;;9.23;6.47;;;2.60;99.90;;;;;;4914413;29;20518;-62
2022/03/13 06:04:32;;;;;;;9.63;7.07;;;2.80;99.90;;;;;;4914207;29;20561;-62
2022/03/13 06:07:01;;;;;;;9.43;6.80;;;2.80;99.90;;;;;;4911106;29;20448;-62
2022/03/13 06:09:29;;;;;;;9.33;7.10;;;2.70;99.90;;;;;;4913584;29;20483;-62
2022/03/13 06:11:58;;;;;;;10.47;7.17;;;2.70;99.90;;;;;;4914034;29;20457;-62
2022/03/13 06:14:27;;;;;;;10.63;7.43;;;2.80;99.90;;;;;;4915729;29;20543;-62
2022/03/13 06:16:55;;;;;;;11.33;7.63;;;2.80;99.90;;;;;;4914016;29;20476;-62
2022/03/13 06:19:23;;;;;;;8.90;6.50;;;2.70;99.60;;;;;;4909289;29;20884;-62
2022/03/13 06:21:51;;;;;;;9.33;6.70;;;2.70;99.90;;;;;;4913958;29;20488;-62
2022/03/13 06:24:21;;;;;;;9.20;6.67;;;2.90;99.90;;;;;;4913718;29;20837;-61
2022/03/13 06:26:50;;;;;;;8.97;6.30;;;3.10;99.90;;;;;;4914034;29;20486;-62
2022/03/13 06:29:18;;;;;;;8.60;6.80;;;3.20;99.90;;;;;;4913689;29;20571;-62
2022/03/13 06:31:46;;;;;;;9.90;6.73;;;3.20;99.90;;;;;;4913708;29;21004;-62
2022/03/13 06:34:14;;;;;;;9.20;7.03;;;3.40;99.90;;;;;;4915377;29;20569;-62
2022/03/13 06:36:43;;;;;;;7.27;5.70;;;3.50;99.90;;;;;;4916379;29;20488;-62
2022/03/13 06:39:11;;;;;;;10.17;7.17;;;3.60;99.90;;;;;;4917827;29;20472;-61
2022/03/13 06:41:40;;;;;;;9.97;7.03;;;3.70;99.90;;;;;;4925349;29;20465;-61
2022/03/13 06:44:09;;;;;;;9.53;6.93;;;3.60;99.90;;;;;;4925241;29;20478;-62
2022/03/13 06:46:37;;;;;;;9.60;6.70;;;3.70;99.90;;;;;;4918376;29;21003;-61
2022/03/13 06:49:05;;;;;;;15.07;7.87;;;3.70;99.90;;;;;;4923461;29;20515;-62
2022/03/13 06:51:39;;;;;;;14.20;8.90;;;3.70;99.90;;;;;;4917693;29;20552;-62
2022/03/13 06:54:08;;;;;;;18.60;12.07;;;3.80;99.90;;;;;;4920035;29;20478;-62
2022/03/13 06:56:36;;;;;;;16.87;10.07;;;3.80;99.30;;;;;;4928834;29;20479;-61
2022/03/13 06:59:07;;;;;;;12.90;9.00;;;3.90;99.00;;;;;;4928857;29;20473;-62
2022/03/13 07:01:36;;;;;;;11.77;8.13;;;4.00;98.60;;;;;;4917828;29;20510;-61
2022/03/13 07:04:05;;;;;;;10.90;7.27;;;4.10;98.10;;;;;;4915860;29;20920;-62
2022/03/13 07:06:33;;;;;;;9.23;6.80;;;4.10;97.20;;;;;;4911947;29;20506;-62
2022/03/13 07:09:03;;;;;;;9.67;7.17;;;4.20;97.10;;;;;;4911020;29;20486;-62
2022/03/13 07:11:32;;;;;;;9.07;7.03;;;4.30;96.70;;;;;;4911122;29;20556;-62
2022/03/13 07:14:03;;;;;;;10.23;7.27;;;4.40;96.10;;;;;;4910609;29;21007;-62
2022/03/13 07:16:33;;;;;;;10.77;7.33;;;4.40;95.80;;;;;;4910591;29;20529;-62
2022/03/13 07:19:01;;;;;;;12.83;7.83;;;4.50;96.60;;;;;;4910277;29;20471;-62
2022/03/13 07:21:29;;;;;;;10.57;7.40;;;4.70;95.80;;;;;;4910314;29;20525;-60
2022/03/13 07:23:57;;;;;;;9.73;7.30;;;4.80;95.40;;;;;;4909632;29;20491;-62
2022/03/13 07:26:25;;;;;;;11.07;7.77;;;4.90;95.60;;;;;;4910484;29;20247;-61
2022/03/13 07:28:53;;;;;;;10.30;7.10;;;5.00;94.40;;;;;;4910354;29;20596;-62
2022/03/13 07:31:22;;;;;;;10.60;6.43;;;5.00;94.60;;;;;;4910818;29;20563;-61
2022/03/13 07:33:51;;;;;;;8.83;6.83;;;5.10;95.50;;;;;;4909924;29;20247;-61
2022/03/13 07:36:19;;;;;;;12.53;7.10;;;5.30;94.00;;;;;;4910288;29;20327;-61
2022/03/13 07:38:47;;;;;;;10.27;6.93;;;5.40;94.10;;;;;;4910663;29;20257;-61
2022/03/13 07:41:15;;;;;;;11.63;7.60;;;5.40;94.10;;;;;;4909734;29;20307;-61
2022/03/13 07:43:43;;;;;;;10.40;7.03;;;5.70;93.60;;;;;;4908841;29;21225;-62
2022/03/13 07:46:12;;;;;;;10.90;7.27;;;5.60;92.70;;;;;;4909917;29;20303;-61
2022/03/13 07:48:44;;;;;;;10.37;7.23;;;5.70;93.00;;;;;;4910004;29;20500;-61
2022/03/13 07:51:13;;;;;;;8.77;6.80;;;5.70;92.90;;;;;;4910902;29;20251;-61
2022/03/13 07:53:44;;;;;;;9.63;7.03;;;6.00;92.60;;;;;;4909095;29;20319;-61
2022/03/13 07:56:13;;;;;;;10.10;7.47;;;6.00;92.10;;;;;;4909781;29;20590;-62
2022/03/13 07:58:41;;;;;;;9.60;7.07;;;6.20;92.00;;;;;;4915140;29;20244;-60
2022/03/13 08:01:09;;;;;;;10.23;6.83;;;6.30;92.00;;;;;;4916524;29;20331;-61
2022/03/13 08:03:38;;;;;;;10.30;7.03;;;6.20;91.70;;;;;;4917942;29;20327;-61
2022/03/13 08:06:06;;;;;;;10.50;7.10;;;6.30;91.50;;;;;;4916388;29;20880;-61
2022/03/13 08:08:40;;;;;;;10.70;7.20;;;6.40;91.30;;;;;;4874854;29;1263503;-60
2022/03/13 08:11:08;;;;;;;10.43;7.17;;;6.50;91.30;;;;;;4919496;29;20486;-60
2022/03/13 08:13:36;;;;;;;11.37;7.03;;;6.50;90.70;;;;;;4921428;29;20405;-61
2022/03/13 08:16:05;;;;;;;10.30;6.77;;;6.60;91.10;;;;;;4917883;29;20276;-60
2022/03/13 08:18:37;;;;;;;10.90;7.93;;;6.60;91.00;;;;;;4920541;29;20597;-60
2022/03/13 08:21:05;;;;;;;9.33;6.93;;;6.70;90.80;;;;;;4917876;29;20704;-61
2022/03/13 08:23:33;;;;;;;9.17;7.17;;;7.00;90.80;;;;;;4920290;29;20336;-61
2022/03/13 08:26:03;;;;;;;12.17;7.27;;;7.10;90.30;;;;;;4916870;29;20240;-60
2022/03/13 08:28:32;;;;;;;11.33;7.27;;;7.20;89.90;;;;;;4921448;29;20713;-61
2022/03/13 08:31:03;;;;;;;10.93;7.27;;;7.40;90.20;;;;;;4925116;29;20778;-61
2022/03/13 08:33:31;;;;;;;9.43;6.80;;;7.40;87.90;;;;;;4920536;29;20334;-60
2022/03/13 08:36:00;;;;;;;9.43;6.77;;;7.50;87.50;;;;;;4918290;29;20259;-61
2022/03/13 08:38:28;;;;;;;9.87;7.13;;;7.70;87.50;;;;;;4924748;29;20617;-61
2022/03/13 08:40:56;;;;;;;9.20;7.03;;;7.70;87.10;;;;;;4924692;29;20295;-61
2022/03/13 08:43:26;;;;;;;9.87;6.43;;;7.80;86.40;;;;;;4924736;29;20252;-61
2022/03/13 08:45:54;;;;;;;8.17;6.23;;;8.10;87.60;;;;;;4922514;29;20240;-60
2022/03/13 08:48:23;;;;;;;9.30;6.43;;;8.10;85.60;;;;;;4916608;29;20236;-61
2022/03/13 08:50:51;;;;;;;9.53;7.10;;;8.10;85.10;;;;;;4916642;29;20266;-60
2022/03/13 08:53:19;;;;;;;10.43;6.83;;;8.10;84.80;;;;;;4919588;29;20240;-60
2022/03/13 08:55:48;;;;;;;9.47;7.07;;;8.10;85.20;;;;;;4922750;29;20666;-61
2022/03/13 08:58:16;;;;;;;9.57;6.63;;;8.30;85.20;;;;;;4917510;29;20232;-61
2022/03/13 09:00:46;;;;;;;11.67;7.50;;;8.50;84.90;;;;;;4920812;29;20267;-61
2022/03/13 09:03:15;;;;;;;11.20;6.77;;;8.70;84.30;;;;;;4916753;29;20259;-61
2022/03/13 09:05:43;;;;;;;9.23;6.73;;;8.70;83.90;;;;;;4922639;29;20339;-61
2022/03/13 09:08:11;;;;;;;10.63;6.87;;;8.80;83.90;;;;;;4924452;29;20612;-60
2022/03/13 09:10:39;;;;;;;10.20;7.30;;;9.10;83.80;;;;;;4919123;29;20287;-61
2022/03/13 09:13:07;;;;;;;13.20;7.07;;;9.10;83.10;;;;;;4919013;29;20245;-61
2022/03/13 09:15:37;;;;;;;9.73;6.73;;;8.90;82.30;;;;;;4922097;29;20240;-61
2022/03/13 09:18:06;;;;;;;9.87;7.27;;;8.80;82.20;;;;;;4921814;29;20608;-61
2022/03/13 09:20:34;;;;;;;8.67;6.80;;;8.90;82.40;;;;;;4919383;29;20334;-61
2022/03/13 09:23:03;;;;;;;11.23;6.90;;;9.20;83.40;;;;;;4919100;29;20242;-60
2022/03/13 09:25:31;;;;;;;8.90;6.90;;;9.30;82.60;;;;;;4915334;29;20690;-61
2022/03/13 09:27:59;;;;;;;10.33;7.20;;;9.50;82.40;;;;;;4923844;29;20323;-60
2022/03/13 09:30:28;;;;;;;8.97;7.00;;;9.50;81.20;;;;;;4916290;29;20242;-61
2022/03/13 09:32:56;;;;;;;10.53;6.50;;;9.70;81.90;;;;;;4917946;29;20253;-60
2022/03/13 09:35:26;;;;;;;10.70;7.77;;;9.90;82.30;;;;;;4917741;29;20244;-61
2022/03/13 09:37:54;;;;;;;9.60;7.27;;;10.20;82.50;;;;;;4923921;29;20245;-61
2022/03/13 09:40:22;;;;;;;9.33;7.13;;;10.50;81.70;;;;;;4924020;29;21114;-61
2022/03/13 09:42:50;;;;;;;10.27;7.30;;;10.70;81.70;;;;;;4915266;29;20241;-61
2022/03/13 09:45:18;;;;;;;8.67;6.80;;;10.90;81.30;;;;;;4916232;29;20238;-61
2022/03/13 09:47:47;;;;;;;8.73;6.50;;;11.10;80.20;;;;;;4917056;29;20288;-60
2022/03/13 09:50:15;;;;;;;9.27;7.27;;;11.40;81.70;;;;;;4917343;29;20245;-61
2022/03/13 09:52:45;;;;;;;9.53;7.27;;;11.50;80.50;;;;;;4919309;29;20238;-60
2022/03/13 09:55:14;;;;;;;9.80;7.47;;;11.60;80.60;;;;;;4918852;29;20240;-61
2022/03/13 09:57:43;;;;;;;9.70;7.40;;;11.70;81.00;;;;;;4919978;29;20753;-60
2022/03/13 10:00:16;;;;;;;8.97;7.37;;;11.90;79.70;;;;;;4918977;29;20786;-60
2022/03/13 10:02:45;;;;;;;9.50;7.17;;;11.80;77.20;;;;;;4918567;29;20239;-60
2022/03/13 10:05:16;;;;;;;8.97;6.87;;;11.80;77.30;;;;;;4915590;29;20641;-60
2022/03/13 10:07:58;;;;;;;9.23;7.20;;;11.90;77.10;;;;;;4915882;29;20373;-61
2022/03/13 10:10:29;;;;;;;9.53;7.10;;;12.10;76.70;;;;;;4917884;29;20253;-59
2022/03/13 10:13:00;;;;;;;8.97;7.30;;;12.20;77.20;;;;;;4920681;29;20242;-60
2022/03/13 10:15:30;;;;;;;9.90;7.93;;;12.10;77.80;;;;;;4915766;29;20243;-59
2022/03/13 10:17:59;;;;;;;10.30;7.47;;;12.30;77.00;;;;;;4915655;29;20645;-60
2022/03/13 10:20:28;;;;;;;9.53;7.00;;;12.50;76.80;;;;;;4909073;29;20723;-60
2022/03/13 10:23:10;;;;;;;9.17;7.40;;;12.70;76.70;;;;;;4909039;29;20250;-61
2022/03/13 10:25:39;;;;;;;10.03;7.00;;;12.60;75.40;;;;;;4907474;29;20239;-60
2022/03/13 10:28:21;;;;;;;8.73;6.90;;;12.60;73.70;;;;;;4909364;29;20230;-60
2022/03/13 10:31:07;;;;;;;8.43;6.23;;;12.80;74.60;;;;;;4908684;29;20250;-60
2022/03/13 10:34:00;;;;;;;7.80;6.43;;;12.60;73.70;;;;;;4907262;29;20253;-61
2022/03/13 10:36:35;;;;;;;9.37;6.50;;;12.90;71.70;;;;;;4908726;29;20298;-60
2022/03/13 10:39:13;;;;;;;8.80;6.50;;;13.10;72.80;;;;;;4908222;29;20251;-60
2022/03/13 10:41:45;;;;;;;8.57;6.40;;;13.50;72.80;;;;;;4908461;29;20247;-59
2022/03/13 10:44:18;;;;;;;7.47;6.50;;;13.60;73.00;;;;;;4906792;29;21098;-59
2022/03/13 10:46:54;;;;;;;7.50;6.10;;;13.50;69.40;;;;;;4909021;29;20248;-61
2022/03/13 10:49:36;;;;;;;7.77;6.27;;;13.60;70.10;;;;;;4908677;29;20244;-60
2022/03/13 10:52:25;;;;;;;7.93;7.00;;;13.80;70.50;;;;;;4908519;29;20248;-60
2022/03/13 10:54:55;;;;;;;8.87;6.30;;;13.80;71.30;;;;;;4907316;29;20236;-60
2022/03/13 10:57:23;;;;;;;10.23;6.60;;;13.70;70.20;;;;;;4909722;29;20236;-60
2022/03/13 11:00:10;;;;;;;9.73;7.07;;;13.50;71.30;;;;;;4908818;29;20314;-60
2022/03/13 11:02:38;;;;;;;8.23;6.40;;;13.50;68.90;;;;;;4908592;29;20251;-60
2022/03/13 11:05:07;;;;;;;11.20;6.27;;;13.40;70.70;;;;;;4907364;29;20244;-60
2022/03/13 11:07:36;;;;;;;7.37;6.17;;;13.40;71.00;;;;;;4908803;29;20597;-60
2022/03/13 11:10:07;;;;;;;10.07;6.70;;;13.40;70.30;;;;;;4909121;29;20251;-61
2022/03/13 11:12:35;;;;;;;10.13;6.70;;;13.50;70.10;;;;;;4909780;29;20784;-59
2022/03/13 11:15:04;;;;;;;8.53;6.27;;;13.30;69.40;;;;;;4916014;29;20799;-60
2022/03/13 11:17:34;;;;;;;8.27;6.43;;;13.50;71.00;;;;;;4918458;29;20245;-60
2022/03/13 11:20:08;;;;;;;7.80;6.67;;;13.60;70.30;;;;;;4916214;29;20236;-60
2022/03/13 11:22:36;;;;;;;8.50;6.90;;;13.90;69.50;;;;;;4921589;29;20292;-60
2022/03/13 11:25:08;;;;;;;8.97;6.70;;;14.10;68.60;;;;;;4914932;29;20236;-60
2022/03/13 11:27:37;;;;;;;7.83;6.53;;;14.30;69.30;;;;;;4912746;29;20291;-59
2022/03/13 11:30:08;;;;;;;7.63;6.53;;;14.40;68.10;;;;;;4912715;29;20251;-61
2022/03/13 11:32:38;;;;;;;8.53;6.17;;;14.70;68.90;;;;;;4910555;29;20850;-61
2022/03/13 11:35:29;;;;;;;8.43;6.80;;;14.60;68.50;;;;;;4910313;29;20251;-60
2022/03/13 11:38:21;;;;;;;9.13;7.00;;;14.80;68.50;;;;;;4910765;29;20426;-60
2022/03/13 11:40:51;;;;;;;8.53;6.77;;;14.30;69.10;;;;;;4911463;29;20386;-61
2022/03/13 11:43:21;;;;;;;7.90;6.33;;;14.10;67.60;;;;;;4911611;29;20260;-60
2022/03/13 11:45:52;;;;;;;7.77;6.33;;;14.10;67.10;;;;;;4910518;29;20248;-60
2022/03/13 11:48:43;;;;;;;11.00;6.63;;;14.00;66.90;;;;;;4910578;29;20236;-60
2022/03/13 11:51:26;;;;;;;6.97;6.13;;;14.10;67.80;;;;;;4911446;29;20263;-60
2022/03/13 11:53:54;;;;;;;8.10;6.20;;;14.20;66.70;;;;;;4910828;29;20328;-60
2022/03/13 11:56:27;;;;;;;8.77;6.60;;;14.50;67.30;;;;;;4910444;29;20690;-60
2022/03/13 11:58:58;;;;;;;7.03;5.67;;;14.40;66.60;;;;;;4910597;29;20897;-61
2022/03/13 12:01:37;;;;;;;8.77;6.57;;;14.50;68.50;;;;;;4911271;29;20648;-60
2022/03/13 12:04:25;;;;;;;7.43;6.00;;;14.50;66.50;;;;;;4909617;29;20248;-58
2022/03/13 12:06:56;;;;;;;11.10;7.10;;;14.50;68.60;;;;;;4911555;29;20244;-58
2022/03/13 12:09:42;;;;;;;8.93;6.37;;;14.30;66.00;;;;;;4910686;29;20720;-58
2022/03/13 12:12:14;;;;;;;10.00;5.77;;;14.20;66.70;;;;;;4910845;29;20256;-57
2022/03/13 12:14:59;;;;;;;8.77;6.60;;;14.20;67.80;;;;;;4910110;29;20332;-57
2022/03/13 12:17:29;;;;;;;8.13;6.07;;;14.20;66.90;;;;;;4912515;29;20271;-58
2022/03/13 12:19:59;;;;;;;9.00;6.33;;;14.20;66.90;;;;;;4924148;29;20233;-58
2022/03/13 12:22:32;;;;;;;7.87;6.00;;;14.10;65.50;;;;;;4916387;29;21262;-57
2022/03/13 12:25:01;;;;;;;7.30;6.10;;;14.20;66.30;;;;;;4916226;29;20252;-58
2022/03/13 12:27:31;;;;;;;8.60;5.83;;;14.30;65.90;;;;;;4923967;29;20242;-58
2022/03/13 12:30:00;;;;;;;6.87;5.53;;;14.40;66.10;;;;;;4916184;29;20315;-58
2022/03/13 12:32:29;;;;;;;6.57;5.70;;;14.20;64.90;;;;;;4915757;29;20239;-58
2022/03/13 12:34:58;;;;;;;7.80;5.80;;;14.20;64.40;;;;;;4916019;29;21192;-58
2022/03/13 12:37:27;;;;;;;7.93;5.73;;;14.30;65.40;;;;;;4917371;29;20241;-58
2022/03/13 12:39:59;;;;;;;8.30;6.03;;;14.60;65.40;;;;;;4923851;29;20244;-58
2022/03/13 12:42:34;;;;;;;6.87;5.77;;;14.40;64.40;;;;;;4931781;29;20259;-57
2022/03/13 12:45:09;;;;;;;8.23;5.83;;;14.40;63.30;;;;;;4920421;29;20235;-58
2022/03/13 12:47:42;;;;;;;7.00;5.80;;;14.50;64.00;;;;;;4915864;29;20231;-58
2022/03/13 12:50:12;;;;;;;8.90;6.00;;;14.50;65.30;;;;;;4913597;29;20805;-58
2022/03/13 12:52:42;;;;;;;6.80;5.70;;;14.50;63.80;;;;;;4911002;29;20307;-57
2022/03/13 12:55:11;;;;;;;6.83;5.83;;;14.20;64.20;;;;;;4910427;29;20728;-58
2022/03/13 12:57:41;;;;;;;9.03;6.40;;;14.30;64.60;;;;;;4909196;29;20708;-58
2022/03/13 13:00:10;;;;;;;6.07;5.47;;;14.30;64.20;;;;;;4909949;29;20235;-58
2022/03/13 13:02:39;;;;;;;7.50;5.97;;;14.30;65.80;;;;;;4910320;29;20331;-58
2022/03/13 13:05:12;;;;;;;8.73;6.40;;;14.30;64.90;;;;;;4909936;29;20240;-58